Glasgow Prestwick Airport

Airport
ICAO code: 
EGPK
IATA Code: 
PIK
Summary
ICAO Region: 
EUR
Territory: 
Location: 
Prestwick, South Ayrshire, Scotland
Serving: 
Glasgow
Elevation: 
65 ft
Coordinates: 
Aerial View: 
55° 30' 20.613" N, 4° 35' 11.627" W
Metar
Observation
EGPK 041020Z 00000KT 9999 -RA SCT014 BKN019 OVC030 03/03 Q0989
Station
Prestwick Airport
Date/Time
2021-12-04 10:20:00
Wind direction
Wind speed
00 kts
Lowest cloud amount
scattered clouds
Temperature
3°C
Dew point
3°C
Humidity
100%
QNH
989 hPa
Weather condition
light rain

Description

International airport serving south west Scotland and the Glasgow urban area, situated 50 km from Glasgow city centre.

Climatology

Temperate Marine climate/Oceanic climate (Köppen climate classification Cfb). Moderately cool summer and comparatively warm winter with a temperature range of only 14°C. Prevailing south-westerly winds from the Atlantic Ocean.

Runways

Designator Length Width Surface Rops
3/21 1829 45 ASP Yes/Yes
13/31 2987 46 PEM Yes/Yes
Airport map: 
Aerial View: 

Accidents and Serious Incidents at or in the vicinity of EGPK

SKYbrary Partners:

Safety knowledge contributed by: